createdAt,value
2022-12-25T00:02:18.170Z,13.77
2022-12-25T00:04:44.921Z,11.70
2022-12-25T00:07:12.301Z,12.30
2022-12-25T00:09:39.168Z,10.90
2022-12-25T00:12:06.039Z,12.50
2022-12-25T00:14:32.805Z,10.73
2022-12-25T00:16:59.491Z,11.27
2022-12-25T00:19:26.276Z,10.93
2022-12-25T00:21:52.975Z,10.97
2022-12-25T00:24:19.772Z,10.50
2022-12-25T00:26:46.487Z,10.70
2022-12-25T00:29:13.923Z,9.77
2022-12-25T00:31:40.771Z,11.90
2022-12-25T00:34:07.540Z,10.70
2022-12-25T00:36:41.136Z,9.73
2022-12-25T00:39:08.862Z,10.60
2022-12-25T00:41:54.006Z,10.00
2022-12-25T00:44:20.955Z,10.60
2022-12-25T00:46:47.738Z,10.10
2022-12-25T00:49:14.574Z,10.80
2022-12-25T00:51:41.365Z,10.07
2022-12-25T00:54:08.423Z,10.90
2022-12-25T00:56:35.695Z,10.00
2022-12-25T00:59:02.460Z,11.37
2022-12-25T01:01:29.426Z,9.73
2022-12-25T01:03:56.358Z,8.97
2022-12-25T01:06:23.259Z,9.20
2022-12-25T01:09:09.513Z,10.03
2022-12-25T01:11:36.440Z,8.87
2022-12-25T01:14:03.564Z,9.43
2022-12-25T01:16:30.555Z,9.90
2022-12-25T01:18:57.395Z,10.23
2022-12-25T01:21:24.381Z,9.17
2022-12-25T01:23:52.526Z,9.57
2022-12-25T01:26:21.629Z,9.27
2022-12-25T01:28:49.710Z,8.87
2022-12-25T01:31:18.759Z,10.20
2022-12-25T01:33:46.645Z,10.10
2022-12-25T01:36:25.284Z,10.00
2022-12-25T01:38:53.682Z,8.80
2022-12-25T01:41:23.090Z,9.63
2022-12-25T01:44:00.705Z,9.53
2022-12-25T01:46:27.759Z,10.47
2022-12-25T01:48:58.107Z,9.97
2022-12-25T01:51:37.466Z,8.97
2022-12-25T01:54:08.637Z,10.57
2022-12-25T01:56:38.336Z,8.83
2022-12-25T01:59:07.217Z,10.13
2022-12-25T02:01:34.250Z,9.13
2022-12-25T02:04:16.554Z,8.93
2022-12-25T02:06:43.324Z,9.00
2022-12-25T02:09:10.375Z,9.57
2022-12-25T02:11:55.660Z,9.40
2022-12-25T02:14:22.649Z,9.60
2022-12-25T02:16:58.820Z,10.30
2022-12-25T02:19:38.654Z,9.10
2022-12-25T02:22:26.952Z,10.00
2022-12-25T02:25:13.125Z,9.70
2022-12-25T02:28:03.779Z,9.43
2022-12-25T02:30:44.069Z,8.70
2022-12-25T02:33:37.376Z,9.10
2022-12-25T02:36:08.859Z,8.77
2022-12-25T02:39:00.150Z,8.93
2022-12-25T02:41:29.656Z,9.97
2022-12-25T02:44:17.163Z,10.50
2022-12-25T02:47:03.592Z,8.73
2022-12-25T02:49:49.879Z,9.43
2022-12-25T02:52:38.743Z,8.93
2022-12-25T02:55:48.732Z,9.30
2022-12-25T02:58:38.991Z,9.13
2022-12-25T03:01:34.764Z,10.57
2022-12-25T03:04:27.478Z,9.60
2022-12-25T03:07:22.851Z,9.17
2022-12-25T03:10:14.449Z,10.93
2022-12-25T03:12:55.196Z,10.47
2022-12-25T03:15:41.564Z,10.63
2022-12-25T03:18:13.241Z,10.30
2022-12-25T03:20:58.449Z,10.47
2022-12-25T03:23:51.190Z,10.23
2022-12-25T03:26:36.475Z,9.40
2022-12-25T03:29:03.836Z,9.30
2022-12-25T03:31:55.665Z,9.70
2022-12-25T03:34:51.623Z,9.43
2022-12-25T03:38:23.087Z,9.00
2022-12-25T03:41:15.979Z,9.60
2022-12-25T03:44:19.352Z,10.73
2022-12-25T03:47:11.125Z,9.13
2022-12-25T03:50:07.613Z,9.70
2022-12-25T03:52:54.547Z,9.90
2022-12-25T03:55:41.718Z,10.57
2022-12-25T03:58:42.044Z,10.27
2022-12-25T04:01:28.059Z,10.17
2022-12-25T04:04:13.316Z,9.73
2022-12-25T04:06:58.904Z,9.93
2022-12-25T04:09:44.444Z,10.43
2022-12-25T04:12:29.671Z,9.80
2022-12-25T04:15:15.305Z,9.57
2022-12-25T04:18:00.658Z,9.13
2022-12-25T04:20:46.119Z,8.87
2022-12-25T04:23:31.594Z,9.00
2022-12-25T04:26:17.325Z,8.50
2022-12-25T04:29:02.604Z,8.37
2022-12-25T04:31:47.911Z,8.23
2022-12-25T04:34:33.288Z,8.27
2022-12-25T04:37:00.026Z,8.97
2022-12-25T04:39:26.796Z,8.63
2022-12-25T04:41:53.556Z,8.17
2022-12-25T04:44:20.268Z,8.50
2022-12-25T04:46:47.039Z,8.33
2022-12-25T04:49:13.937Z,8.47
2022-12-25T04:51:40.654Z,9.10
2022-12-25T04:54:07.381Z,8.37
2022-12-25T04:56:36.400Z,8.37
2022-12-25T04:59:06.093Z,8.57
2022-12-25T05:01:33.105Z,8.83
2022-12-25T05:03:59.997Z,8.30
2022-12-25T05:06:27.211Z,7.37
2022-12-25T05:08:54.227Z,8.23
2022-12-25T05:11:20.940Z,8.23
2022-12-25T05:13:47.680Z,8.77
2022-12-25T05:16:17.567Z,8.63
2022-12-25T05:18:45.087Z,8.80
2022-12-25T05:21:12.059Z,7.50
2022-12-25T05:23:39.183Z,8.03
2022-12-25T05:26:07.409Z,8.23
2022-12-25T05:28:35.568Z,7.33
2022-12-25T05:31:02.928Z,8.10
2022-12-25T05:33:29.739Z,7.83
2022-12-25T05:35:56.452Z,8.47
2022-12-25T05:38:23.185Z,8.50
2022-12-25T05:40:51.852Z,7.77
2022-12-25T05:43:19.589Z,7.03
2022-12-25T05:45:46.409Z,7.73
2022-12-25T05:48:13.220Z,7.67
2022-12-25T05:50:40.041Z,7.80
2022-12-25T05:53:12.610Z,7.93
2022-12-25T05:55:43.449Z,7.63
2022-12-25T05:58:11.986Z,7.97
2022-12-25T06:00:39.003Z,7.97
2022-12-25T06:03:05.783Z,6.87
2022-12-25T06:05:32.982Z,7.40
2022-12-25T06:07:59.684Z,7.30
2022-12-25T06:10:26.435Z,7.00
2022-12-25T06:12:54.243Z,7.50
2022-12-25T06:15:21.032Z,7.23
2022-12-25T06:17:47.765Z,7.43
2022-12-25T06:20:14.500Z,6.83
2022-12-25T06:22:41.326Z,7.50
2022-12-25T06:25:08.543Z,7.13
2022-12-25T06:27:35.269Z,7.60
2022-12-25T06:30:02.330Z,7.70
2022-12-25T06:32:29.093Z,6.63
2022-12-25T06:34:55.837Z,6.67
2022-12-25T06:37:22.606Z,6.73
2022-12-25T06:39:49.493Z,7.20
2022-12-25T06:42:16.248Z,7.57
2022-12-25T06:44:43.005Z,7.27
2022-12-25T06:47:09.737Z,7.47
2022-12-25T06:49:36.481Z,6.90
2022-12-25T06:52:03.548Z,7.17
2022-12-25T06:54:30.355Z,6.90
2022-12-25T06:56:57.093Z,6.40
2022-12-25T06:59:23.833Z,6.47
2022-12-25T07:01:59.969Z,6.67
2022-12-25T07:04:32.626Z,6.90
2022-12-25T07:07:06.117Z,7.23
2022-12-25T07:09:35.679Z,6.00
2022-12-25T07:12:14.160Z,6.20
2022-12-25T07:14:41.323Z,5.67
2022-12-25T07:17:08.091Z,6.10
2022-12-25T07:19:39.699Z,6.00
2022-12-25T07:22:09.657Z,5.60
2022-12-25T07:24:36.422Z,6.57
2022-12-25T07:27:03.190Z,6.43
2022-12-25T07:29:29.922Z,6.53
2022-12-25T07:31:57.262Z,6.47
2022-12-25T07:34:24.178Z,6.70
2022-12-25T07:36:50.892Z,7.27
2022-12-25T07:39:17.889Z,7.13
2022-12-25T07:41:44.737Z,7.27
2022-12-25T07:44:15.847Z,5.73
2022-12-25T07:46:42.994Z,5.77
2022-12-25T07:49:10.986Z,6.23
2022-12-25T07:51:38.121Z,6.37
2022-12-25T07:54:05.210Z,6.50
2022-12-25T07:56:32.076Z,6.93
2022-12-25T07:58:58.886Z,6.27
2022-12-25T08:01:27.022Z,5.70
2022-12-25T08:03:59.545Z,6.07
2022-12-25T08:06:30.428Z,5.67
2022-12-25T08:09:02.064Z,5.90
2022-12-25T08:11:28.827Z,6.53
2022-12-25T08:13:55.603Z,6.67
2022-12-25T08:16:22.737Z,5.83
2022-12-25T08:18:49.597Z,5.60
2022-12-25T08:21:16.853Z,6.33
2022-12-25T08:23:46.361Z,6.33
2022-12-25T08:26:17.001Z,6.40
2022-12-25T08:28:43.835Z,6.20
2022-12-25T08:31:21.387Z,6.57
2022-12-25T08:33:49.834Z,6.87
2022-12-25T08:36:17.691Z,6.27
2022-12-25T08:38:44.999Z,6.10
2022-12-25T08:41:12.889Z,6.10
2022-12-25T08:43:39.694Z,6.37
2022-12-25T08:46:07.375Z,5.90
2022-12-25T08:48:34.902Z,5.03
2022-12-25T08:51:02.473Z,6.17
2022-12-25T08:53:29.475Z,5.90
2022-12-25T08:56:04.492Z,6.70
2022-12-25T08:58:31.569Z,6.43
2022-12-25T09:00:58.506Z,5.50
2022-12-25T09:03:25.838Z,5.67
2022-12-25T09:05:53.740Z,6.10
2022-12-25T09:08:21.767Z,4.73
2022-12-25T09:10:49.356Z,5.50
2022-12-25T09:13:16.131Z,5.50
2022-12-25T09:15:42.964Z,5.57
2022-12-25T09:18:09.841Z,5.90
2022-12-25T09:20:36.614Z,6.50
2022-12-25T09:23:07.244Z,6.17
2022-12-25T09:25:36.842Z,6.27
2022-12-25T09:28:03.791Z,6.20
2022-12-25T09:30:30.561Z,6.37
2022-12-25T09:32:57.332Z,5.80
2022-12-25T09:35:24.061Z,6.83
2022-12-25T09:37:50.780Z,6.57
2022-12-25T09:40:19.983Z,6.10
2022-12-25T09:42:49.143Z,6.47
2022-12-25T09:45:23.970Z,6.27
2022-12-25T09:47:58.459Z,6.73
2022-12-25T09:50:49.855Z,6.27
2022-12-25T09:53:22.189Z,5.90
2022-12-25T09:56:15.852Z,6.17
2022-12-25T09:58:43.390Z,6.90
2022-12-25T10:01:17.265Z,6.27
2022-12-25T10:04:19.683Z,7.17
2022-12-25T10:07:07.826Z,5.80
2022-12-25T10:10:00.995Z,6.43
2022-12-25T10:12:47.306Z,7.07
2022-12-25T10:15:59.306Z,7.00
2022-12-25T10:18:51.908Z,7.33
2022-12-25T10:21:19.761Z,5.87
2022-12-25T10:23:51.763Z,6.17
2022-12-25T10:26:25.066Z,6.83
2022-12-25T10:29:13.691Z,7.00
2022-12-25T10:31:41.944Z,6.60
2022-12-25T10:34:12.682Z,7.57
2022-12-25T10:36:39.929Z,6.77
2022-12-25T10:39:06.701Z,7.77
2022-12-25T10:41:53.173Z,7.33
2022-12-25T10:44:24.274Z,8.20
2022-12-25T10:46:57.288Z,8.90
2022-12-25T10:49:28.251Z,8.77
2022-12-25T10:51:55.073Z,9.37
2022-12-25T10:54:29.655Z,7.73
2022-12-25T10:57:13.115Z,8.17
2022-12-25T10:59:51.442Z,7.33
2022-12-25T11:02:39.651Z,8.37
2022-12-25T11:05:14.838Z,7.67
2022-12-25T11:07:51.162Z,7.87
2022-12-25T11:10:24.061Z,7.73
2022-12-25T11:12:52.139Z,7.50
2022-12-25T11:15:38.711Z,8.30
2022-12-25T11:18:28.567Z,8.07
2022-12-25T11:20:58.504Z,8.07
2022-12-25T11:23:27.457Z,8.57
2022-12-25T11:26:06.534Z,8.67
2022-12-25T11:28:36.843Z,12.23
2022-12-25T11:31:35.605Z,10.10
2022-12-25T11:34:16.586Z,9.87
2022-12-25T11:36:51.996Z,17.33
2022-12-25T11:39:32.678Z,12.83
2022-12-25T11:42:05.349Z,10.93
2022-12-25T11:45:02.553Z,12.83
2022-12-25T11:47:42.355Z,11.93
2022-12-25T11:50:15.340Z,9.63
2022-12-25T11:52:46.085Z,8.13
2022-12-25T11:55:56.817Z,11.13
2022-12-25T11:58:32.786Z,9.73
2022-12-25T12:01:06.251Z,8.57
2022-12-25T12:03:37.484Z,8.53
2022-12-25T12:06:37.832Z,8.43
2022-12-25T12:09:26.482Z,7.80
2022-12-25T12:12:09.459Z,7.57
2022-12-25T12:14:53.285Z,7.80
2022-12-25T12:17:20.493Z,8.20
2022-12-25T12:19:47.409Z,8.23
2022-12-25T12:22:24.544Z,7.70
2022-12-25T12:25:06.844Z,7.83
2022-12-25T12:27:41.970Z,9.37
2022-12-25T12:30:28.335Z,8.33
2022-12-25T12:32:59.130Z,8.07
2022-12-25T12:35:39.732Z,9.17
2022-12-25T12:38:17.580Z,9.23
2022-12-25T12:40:59.291Z,11.07
2022-12-25T12:43:31.899Z,9.73
2022-12-25T12:46:03.029Z,12.73
2022-12-25T12:48:30.341Z,10.37
2022-12-25T12:51:27.967Z,9.70
2022-12-25T12:54:25.486Z,9.57
2022-12-25T12:57:00.786Z,9.50
2022-12-25T12:59:44.475Z,9.37
2022-12-25T13:02:30.066Z,10.17
2022-12-25T13:05:05.783Z,10.17
2022-12-25T13:08:07.143Z,11.00
2022-12-25T13:10:35.794Z,11.43
2022-12-25T13:13:22.989Z,11.97
2022-12-25T13:15:51.493Z,14.70
2022-12-25T13:18:18.625Z,13.10
2022-12-25T13:20:56.963Z,13.40
2022-12-25T13:23:27.820Z,14.73
2022-12-25T13:26:00.858Z,15.10
2022-12-25T13:28:33.692Z,14.17
2022-12-25T13:31:03.413Z,17.77
2022-12-25T13:33:30.393Z,14.77
2022-12-25T13:35:57.313Z,14.17
2022-12-25T13:38:27.250Z,15.10
2022-12-25T13:41:14.600Z,13.37
2022-12-25T13:43:43.298Z,13.83
2022-12-25T13:46:15.214Z,12.13
2022-12-25T13:48:42.821Z,13.20
2022-12-25T13:51:15.055Z,13.90
2022-12-25T13:53:44.071Z,14.73
2022-12-25T13:56:15.700Z,12.20
2022-12-25T13:58:43.258Z,11.63
2022-12-25T14:01:12.409Z,13.77
2022-12-25T14:03:45.414Z,13.43
2022-12-25T14:06:23.984Z,16.20
2022-12-25T14:08:52.408Z,13.83
2022-12-25T14:11:21.687Z,13.87
2022-12-25T14:13:51.194Z,12.93
2022-12-25T14:16:19.438Z,12.87
2022-12-25T14:18:55.258Z,11.50
2022-12-25T14:21:30.458Z,11.73
2022-12-25T14:23:57.586Z,12.27
2022-12-25T14:26:33.978Z,12.63
2022-12-25T14:29:15.675Z,11.53
2022-12-25T14:31:45.913Z,12.30
2022-12-25T14:34:24.764Z,12.97
2022-12-25T14:36:53.156Z,12.37
2022-12-25T14:39:30.590Z,13.97
2022-12-25T14:41:57.587Z,13.67
2022-12-25T14:44:36.812Z,12.70
2022-12-25T14:47:18.636Z,12.67
2022-12-25T14:49:45.639Z,15.10
2022-12-25T14:52:24.035Z,13.17
2022-12-25T14:54:58.901Z,14.30
2022-12-25T14:57:39.926Z,12.77
2022-12-25T15:00:19.231Z,12.80
2022-12-25T15:02:47.204Z,12.20
2022-12-25T15:05:29.678Z,14.17
2022-12-25T15:08:17.774Z,12.47
2022-12-25T15:11:02.360Z,13.17
2022-12-25T15:13:31.215Z,14.30
2022-12-25T15:16:12.216Z,13.80
2022-12-25T15:18:41.964Z,13.20
2022-12-25T15:21:31.435Z,11.83
2022-12-25T15:23:59.864Z,13.27
2022-12-25T15:26:28.464Z,12.50
2022-12-25T15:28:55.350Z,13.97
2022-12-25T15:31:25.031Z,13.63
2022-12-25T15:33:53.216Z,13.57
2022-12-25T15:36:20.511Z,11.60
2022-12-25T15:38:47.264Z,12.63
2022-12-25T15:41:36.280Z,13.33
2022-12-25T15:44:04.188Z,14.37
2022-12-25T15:46:31.878Z,15.10
2022-12-25T15:48:58.712Z,22.17
2022-12-25T15:51:25.516Z,20.70
2022-12-25T15:53:52.429Z,16.07
2022-12-25T15:56:19.404Z,14.33
2022-12-25T15:58:46.160Z,14.63
2022-12-25T16:01:17.929Z,15.83
2022-12-25T16:03:45.231Z,16.97
2022-12-25T16:06:13.796Z,20.80
2022-12-25T16:08:41.280Z,19.83
2022-12-25T16:11:08.728Z,18.13
2022-12-25T16:13:35.875Z,18.07
2022-12-25T16:16:03.623Z,27.87
2022-12-25T16:18:30.661Z,23.70
2022-12-25T16:20:59.120Z,20.40
2022-12-25T16:23:26.030Z,21.00
2022-12-25T16:25:52.880Z,20.40
2022-12-25T16:28:19.635Z,18.87
2022-12-25T16:30:46.427Z,20.77
2022-12-25T16:33:13.213Z,20.60
2022-12-25T16:35:40.015Z,20.53
2022-12-25T16:38:07.048Z,18.97
2022-12-25T16:40:34.490Z,15.93
2022-12-25T16:43:01.309Z,16.70
2022-12-25T16:45:28.192Z,23.87
2022-12-25T16:47:56.831Z,24.50
2022-12-25T16:50:23.801Z,21.87
2022-12-25T16:52:50.676Z,20.37
2022-12-25T16:55:17.479Z,21.60
2022-12-25T16:57:47.705Z,19.83
2022-12-25T17:00:14.944Z,16.73
2022-12-25T17:02:42.016Z,17.03
2022-12-25T17:05:09.753Z,19.73
2022-12-25T17:07:37.556Z,25.85
2022-12-25T17:10:06.366Z,22.47
2022-12-25T17:12:34.040Z,30.50
2022-12-25T17:15:00.886Z,21.93
2022-12-25T17:17:27.655Z,20.13
2022-12-25T17:19:54.503Z,19.93
2022-12-25T17:22:21.682Z,17.57
2022-12-25T17:24:48.493Z,17.27
2022-12-25T17:27:15.326Z,15.10
2022-12-25T17:29:43.881Z,15.33
2022-12-25T17:32:12.090Z,20.80
2022-12-25T17:34:39.005Z,23.10
2022-12-25T17:37:06.167Z,25.77
2022-12-25T17:39:33.150Z,22.57
2022-12-25T17:41:59.955Z,23.60
2022-12-25T17:44:27.387Z,24.47
2022-12-25T17:46:54.287Z,32.07
2022-12-25T17:49:22.328Z,31.17
2022-12-25T17:51:49.298Z,35.40
2022-12-25T17:54:16.273Z,39.27
2022-12-25T17:56:43.138Z,40.43
2022-12-25T17:59:18.130Z,38.23
2022-12-25T18:01:46.611Z,31.10
2022-12-25T18:04:13.796Z,37.07
2022-12-25T18:06:40.780Z,29.07
2022-12-25T18:09:07.664Z,25.73
2022-12-25T18:11:37.341Z,22.17
2022-12-25T18:14:05.842Z,23.00
2022-12-25T18:16:36.216Z,19.73
2022-12-25T18:19:03.538Z,21.30
2022-12-25T18:21:30.902Z,27.90
2022-12-25T18:23:57.717Z,23.93
2022-12-25T18:26:25.931Z,21.73
2022-12-25T18:28:52.839Z,23.67
2022-12-25T18:31:22.832Z,23.23
2022-12-25T18:33:50.361Z,21.23
2022-12-25T18:36:20.383Z,25.77
2022-12-25T18:38:48.994Z,26.00
2022-12-25T18:41:16.121Z,31.30
2022-12-25T18:43:52.427Z,41.50
2022-12-25T18:46:24.602Z,37.57
2022-12-25T18:48:52.121Z,35.73
2022-12-25T18:51:19.209Z,31.53
2022-12-25T18:53:46.251Z,30.13
2022-12-25T18:56:17.915Z,34.50
2022-12-25T18:58:46.699Z,31.60
2022-12-25T19:01:14.944Z,24.57
2022-12-25T19:03:42.696Z,27.47
2022-12-25T19:06:09.672Z,25.07
2022-12-25T19:08:36.389Z,24.27
2022-12-25T19:11:07.570Z,21.20
2022-12-25T19:13:34.720Z,28.63
2022-12-25T19:16:01.598Z,36.87
2022-12-25T19:18:28.581Z,35.00
2022-12-25T19:20:55.326Z,33.10
2022-12-25T19:23:22.064Z,29.13
2022-12-25T19:25:49.566Z,27.77
2022-12-25T19:28:17.679Z,25.90
2022-12-25T19:30:44.828Z,23.23
2022-12-25T19:33:17.487Z,25.57
2022-12-25T19:35:44.767Z,25.90
2022-12-25T19:38:11.620Z,25.70
2022-12-25T19:40:39.644Z,24.10
2022-12-25T19:43:07.547Z,22.27
2022-12-25T19:45:34.436Z,22.80
2022-12-25T19:48:01.268Z,22.23
2022-12-25T19:50:32.432Z,21.67
2022-12-25T19:52:59.245Z,20.70
2022-12-25T19:55:26.027Z,20.93
2022-12-25T19:57:53.116Z,21.47
2022-12-25T20:00:20.003Z,24.00
2022-12-25T20:02:47.865Z,24.17
2022-12-25T20:05:14.907Z,26.07
2022-12-25T20:07:41.645Z,24.33
2022-12-25T20:10:08.653Z,25.73
2022-12-25T20:12:35.573Z,21.63
2022-12-25T20:15:02.437Z,33.13
2022-12-25T20:17:29.200Z,26.23
2022-12-25T20:19:55.995Z,19.67
2022-12-25T20:22:22.738Z,22.67
2022-12-25T20:24:49.502Z,23.63
2022-12-25T20:27:16.279Z,22.03
2022-12-25T20:29:43.037Z,20.20
2022-12-25T20:32:09.844Z,19.23
2022-12-25T20:34:36.801Z,20.63
2022-12-25T20:37:03.779Z,20.03
2022-12-25T20:39:30.587Z,22.63
2022-12-25T20:41:57.301Z,21.87
2022-12-25T20:44:24.080Z,19.60
2022-12-25T20:46:50.824Z,34.27
2022-12-25T20:49:17.555Z,34.57
2022-12-25T20:51:44.303Z,29.77
2022-12-25T20:54:12.673Z,24.80
2022-12-25T20:56:40.271Z,22.67
2022-12-25T20:59:07.080Z,22.70
2022-12-25T21:01:33.921Z,24.23
2022-12-25T21:04:00.926Z,22.13
2022-12-25T21:06:27.752Z,23.97
2022-12-25T21:08:54.687Z,21.37
2022-12-25T21:11:21.950Z,22.03
2022-12-25T21:13:49.726Z,20.30
2022-12-25T21:16:22.143Z,18.93
2022-12-25T21:18:50.911Z,18.33
2022-12-25T21:21:18.360Z,17.73
2022-12-25T21:23:45.944Z,19.23
2022-12-25T21:26:20.095Z,16.60
2022-12-25T21:28:52.093Z,17.70
2022-12-25T21:31:20.047Z,15.60
2022-12-25T21:33:52.953Z,17.23
2022-12-25T21:36:27.146Z,17.80
2022-12-25T21:39:06.129Z,18.33
2022-12-25T21:41:35.303Z,19.80
2022-12-25T21:44:02.793Z,19.00
2022-12-25T21:46:30.031Z,17.27
2022-12-25T21:48:57.918Z,19.50
2022-12-25T21:51:46.134Z,18.07
2022-12-25T21:54:13.902Z,19.57
2022-12-25T21:56:44.966Z,17.47
2022-12-25T21:59:15.279Z,17.33
2022-12-25T22:01:42.739Z,19.60
2022-12-25T22:04:12.715Z,17.43
2022-12-25T22:06:58.251Z,15.67
2022-12-25T22:09:25.582Z,15.40
2022-12-25T22:12:10.748Z,15.17
2022-12-25T22:14:55.509Z,15.77
2022-12-25T22:17:50.073Z,13.97
2022-12-25T22:20:24.345Z,13.27
2022-12-25T22:22:51.533Z,13.00
2022-12-25T22:25:18.967Z,12.13
2022-12-25T22:27:47.880Z,13.43
2022-12-25T22:30:20.842Z,12.67
2022-12-25T22:32:48.301Z,13.00
2022-12-25T22:35:16.416Z,15.27
2022-12-25T22:37:43.444Z,12.90
2022-12-25T22:40:12.753Z,14.73
2022-12-25T22:42:40.716Z,13.33
2022-12-25T22:45:08.039Z,13.27
2022-12-25T22:47:35.416Z,13.17
2022-12-25T22:50:02.270Z,13.53
2022-12-25T22:52:29.048Z,12.77
2022-12-25T22:54:55.831Z,14.00
2022-12-25T22:57:22.608Z,14.30
2022-12-25T22:59:51.873Z,14.53
2022-12-25T23:02:19.017Z,14.60
2022-12-25T23:04:46.076Z,15.70
2022-12-25T23:07:14.560Z,14.47
2022-12-25T23:09:42.660Z,13.80
2022-12-25T23:12:29.701Z,17.67
2022-12-25T23:14:57.352Z,14.30
2022-12-25T23:17:43.412Z,12.63
2022-12-25T23:20:31.200Z,14.50
2022-12-25T23:23:16.834Z,14.70
2022-12-25T23:26:02.082Z,14.97
2022-12-25T23:28:47.721Z,15.00
2022-12-25T23:31:14.639Z,13.50
2022-12-25T23:33:41.529Z,13.87
2022-12-25T23:36:08.356Z,14.07
2022-12-25T23:38:35.114Z,13.83
2022-12-25T23:41:01.888Z,15.20
2022-12-25T23:43:28.699Z,14.00
2022-12-25T23:45:55.419Z,12.90
2022-12-25T23:48:22.158Z,14.20
2022-12-25T23:50:48.919Z,15.57
2022-12-25T23:53:15.710Z,16.80
2022-12-25T23:55:42.763Z,15.37
2022-12-25T23:58:09.878Z,14.43
